Wetterdaten: Sonntag, 14.06.2015
Datum Zeit Auen-Temp. Temp gefhlt Luftfeuchte Luftdruck Regen Wind Richtung Richtung Taupunkt Windben
14.06.2015 00:00 14,8 C 14,7 C 86 % 1016,6 hPa 0,0 mm 1,8 km/h (1 Bft) S 180 12,5 C 3,9 km/h (1 Bft)
14.06.2015 00:05 14,8 C 14,7 C 86 % 1016,6 hPa 0,0 mm 2,3 km/h (1 Bft) S-SW 202 12,5 C 5,2 km/h (1 Bft)
14.06.2015 00:10 14,8 C 14,7 C 88 % 1016,6 hPa 0,0 mm 4,1 km/h (1 Bft) S-SO 157 12,8 C 6,0 km/h (2 Bft)
14.06.2015 00:15 14,8 C 14,7 C 88 % 1016,5 hPa 0,0 mm 3,6 km/h (1 Bft) O-NO 67 12,8 C 0,0 km/h (0 Bft)
14.06.2015 00:20 14,7 C 14,6 C 88 % 1016,5 hPa 0,0 mm 1,3 km/h (1 Bft) SO 135 12,7 C 6,5 km/h (2 Bft)
14.06.2015 00:25 14,7 C 14,6 C 88 % 1016,5 hPa 0,0 mm 0,8 km/h (0 Bft) SW 225 12,7 C 4,9 km/h (1 Bft)
14.06.2015 00:30 14,7 C 14,6 C 88 % 1016,5 hPa 0,0 mm 3,1 km/h (1 Bft) SO 135 12,7 C 12,4 km/h (3 Bft)
14.06.2015 00:35 14,6 C 14,5 C 88 % 1016,2 hPa 0,0 mm 2,8 km/h (1 Bft) S 180 12,6 C 0,0 km/h (0 Bft)
14.06.2015 00:40 14,6 C 14,5 C 88 % 1016,2 hPa 0,0 mm 1,3 km/h (1 Bft) S-SO 157 12,6 C 2,8 km/h (1 Bft)
14.06.2015 00:45 14,6 C 14,5 C 88 % 1016,2 hPa 0,0 mm 2,6 km/h (1 Bft) S-SO 157 12,6 C 5,2 km/h (1 Bft)
14.06.2015 00:50 14,6 C 14,5 C 88 % 1016,2 hPa 0,0 mm 2,6 km/h (1 Bft) S 180 12,6 C 0,0 km/h (0 Bft)
14.06.2015 00:55 14,5 C 14,4 C 88 % 1016,0 hPa 0,0 mm 1,0 km/h (0 Bft) S-SO 157 12,5 C 0,0 km/h (0 Bft)
14.06.2015 01:00 14,5 C 14,4 C 88 % 1016,0 hPa 0,0 mm 0,0 km/h (0 Bft) SW 225 12,5 C 0,0 km/h (0 Bft)
14.06.2015 01:05 14,4 C 14,3 C 88 % 1016,0 hPa 0,0 mm 0,3 km/h (0 Bft) S 180 12,4 C 0,0 km/h (0 Bft)
14.06.2015 01:10 14,4 C 14,3 C 88 % 1016,0 hPa 0,0 mm 0,3 km/h (0 Bft) S-SO 157 12,4 C 0,0 km/h (0 Bft)
14.06.2015 01:15 14,4 C 14,3 C 88 % 1015,9 hPa 0,0 mm 0,0 km/h (0 Bft) S 180 12,4 C 0,0 km/h (0 Bft)
14.06.2015 01:20 14,5 C 14,4 C 88 % 1015,9 hPa 0,0 mm 0,0 km/h (0 Bft) W-SW 247 12,5 C 0,0 km/h (0 Bft)
14.06.2015 01:25 14,5 C 14,4 C 88 % 1015,9 hPa 0,0 mm 0,0 km/h (0 Bft) W-SW 247 12,5 C 0,0 km/h (0 Bft)
14.06.2015 01:30 14,6 C 14,5 C 88 % 1015,9 hPa 0,0 mm 0,0 km/h (0 Bft) W-SW 247 12,6 C 0,0 km/h (0 Bft)
14.06.2015 01:35 14,6 C 14,5 C 88 % 1015,8 hPa 0,0 mm 0,0 km/h (0 Bft) W 270 12,6 C 0,0 km/h (0 Bft)
14.06.2015 01:40 14,6 C 14,5 C 88 % 1015,8 hPa 0,0 mm 0,3 km/h (0 Bft) W-SW 247 12,6 C 0,0 km/h (0 Bft)
14.06.2015 01:45 14,6 C 14,5 C 88 % 1015,8 hPa 0,0 mm 0,3 km/h (0 Bft) S 180 12,6 C 0,0 km/h (0 Bft)
14.06.2015 01:50 14,5 C 14,4 C 88 % 1015,8 hPa 0,0 mm 0,0 km/h (0 Bft) SW 225 12,5 C 0,0 km/h (0 Bft)
14.06.2015 01:55 14,3 C 14,3 C 88 % 1015,6 hPa 0,0 mm 0,0 km/h (0 Bft) N-NO 22 12,3 C 0,0 km/h (0 Bft)
14.06.2015 02:00 14,1 C 14,0 C 88 % 1015,6 hPa 0,0 mm 0,0 km/h (0 Bft) W-NW 292 12,1 C 0,0 km/h (0 Bft)
14.06.2015 02:05 14,1 C 14,0 C 88 % 1015,6 hPa 0,0 mm 0,3 km/h (0 Bft) W 270 12,1 C 0,0 km/h (0 Bft)
14.06.2015 02:10 13,9 C 13,9 C 88 % 1015,6 hPa 0,0 mm 0,3 km/h (0 Bft) NW 315 11,9 C 0,0 km/h (0 Bft)
14.06.2015 02:15 14,1 C 14,0 C 88 % 1015,7 hPa 0,0 mm 0,0 km/h (0 Bft) W-SW 247 12,1 C 0,0 km/h (0 Bft)
14.06.2015 02:20 14,1 C 14,0 C 89 % 1015,7 hPa 0,0 mm 1,0 km/h (0 Bft) O-NO 67 12,3 C 0,0 km/h (0 Bft)
14.06.2015 02:25 14,1 C 14,0 C 89 % 1015,7 hPa 0,0 mm 1,3 km/h (1 Bft) SO 135 12,3 C 0,0 km/h (0 Bft)
14.06.2015 02:30 14,0 C 13,9 C 89 % 1015,7 hPa 0,0 mm 0,3 km/h (0 Bft) SO 135 12,2 C 0,0 km/h (0 Bft)
14.06.2015 02:35 14,1 C 14,0 C 89 % 1015,6 hPa 0,0 mm 0,0 km/h (0 Bft) SO 135 12,3 C 0,0 km/h (0 Bft)
14.06.2015 02:40 14,0 C 13,9 C 89 % 1015,6 hPa 0,0 mm 0,0 km/h (0 Bft) S 180 12,2 C 0,0 km/h (0 Bft)
14.06.2015 02:45 14,2 C 14,1 C 89 % 1015,6 hPa 0,0 mm 0,0 km/h (0 Bft) S 180 12,4 C 0,0 km/h (0 Bft)
14.06.2015 02:50 14,1 C 14,0 C 89 % 1015,6 hPa 0,0 mm 0,0 km/h (0 Bft) S-SO 157 12,3 C 0,0 km/h (0 Bft)
14.06.2015 02:55 14,2 C 14,1 C 90 % 1015,7 hPa 0,0 mm 0,0 km/h (0 Bft) O-NO 67 12,6 C 0,0 km/h (0 Bft)
14.06.2015 03:00 13,8 C 13,8 C 90 % 1015,7 hPa 0,0 mm 0,3 km/h (0 Bft) O 90 12,2 C 0,0 km/h (0 Bft)
14.06.2015 03:05 13,7 C 13,7 C 90 % 1015,7 hPa 0,0 mm 0,3 km/h (0 Bft) O 90 12,1 C 0,0 km/h (0 Bft)
14.06.2015 03:10 13,9 C 13,8 C 90 % 1015,7 hPa 0,0 mm 0,3 km/h (0 Bft) O 90 12,3 C 0,0 km/h (0 Bft)
14.06.2015 03:15 13,9 C 13,8 C 90 % 1015,9 hPa 0,0 mm 0,3 km/h (0 Bft) O-SO 112 12,3 C 2,6 km/h (1 Bft)
14.06.2015 03:20 14,2 C 14,1 C 90 % 1015,9 hPa 0,0 mm 1,0 km/h (0 Bft) SO 135 12,6 C 4,4 km/h (1 Bft)
14.06.2015 03:25 14,2 C 14,1 C 90 % 1015,9 hPa 0,0 mm 1,6 km/h (1 Bft) O-NO 67 12,6 C 5,7 km/h (1 Bft)
14.06.2015 03:30 14,1 C 14,1 C 90 % 1015,9 hPa 0,0 mm 2,1 km/h (1 Bft) N-NO 22 12,5 C 0,0 km/h (0 Bft)
14.06.2015 03:35 14,0 C 14,0 C 90 % 1015,6 hPa 0,0 mm 1,3 km/h (1 Bft) NO 45 12,4 C 2,6 km/h (1 Bft)
14.06.2015 03:40 13,9 C 13,8 C 90 % 1015,6 hPa 0,0 mm 0,3 km/h (0 Bft) SO 135 12,3 C 0,0 km/h (0 Bft)
14.06.2015 03:45 13,9 C 13,8 C 90 % 1015,6 hPa 0,0 mm 0,5 km/h (0 Bft) NO 45 12,3 C 0,0 km/h (0 Bft)
14.06.2015 03:50 13,9 C 13,8 C 90 % 1015,6 hPa 0,0 mm 0,3 km/h (0 Bft) W-NW 292 12,3 C 0,0 km/h (0 Bft)
14.06.2015 03:55 13,9 C 13,8 C 90 % 1015,2 hPa 0,0 mm 0,0 km/h (0 Bft) SW 225 12,3 C 0,0 km/h (0 Bft)
14.06.2015 04:00 13,9 C 13,8 C 90 % 1015,2 hPa 0,0 mm 0,8 km/h (0 Bft) SW 225 12,3 C 0,0 km/h (0 Bft)
14.06.2015 04:05 13,8 C 13,7 C 90 % 1015,2 hPa 0,0 mm 0,8 km/h (0 Bft) S 180 12,2 C 0,0 km/h (0 Bft)
14.06.2015 04:10 13,9 C 13,8 C 90 % 1015,2 hPa 0,0 mm 0,0 km/h (0 Bft) O-NO 67 12,3 C 0,0 km/h (0 Bft)
14.06.2015 04:15 13,9 C 13,8 C 90 % 1015,2 hPa 0,0 mm 0,0 km/h (0 Bft) O-SO 112 12,3 C 0,0 km/h (0 Bft)
14.06.2015 04:20 13,9 C 13,8 C 90 % 1015,2 hPa 0,0 mm 0,0 km/h (0 Bft) SO 135 12,3 C 0,0 km/h (0 Bft)
14.06.2015 04:25 13,8 C 13,8 C 90 % 1015,2 hPa 0,0 mm 0,0 km/h (0 Bft) S-SO 157 12,2 C 0,0 km/h (0 Bft)
14.06.2015 04:30 13,7 C 13,7 C 90 % 1015,2 hPa 0,0 mm 0,0 km/h (0 Bft) O-NO 67 12,1 C 0,0 km/h (0 Bft)
14.06.2015 04:35 13,7 C 13,7 C 90 % 1015,1 hPa 0,0 mm 0,0 km/h (0 Bft) N-NW 337 12,1 C 0,0 km/h (0 Bft)
14.06.2015 04:40 13,9 C 13,8 C 90 % 1015,1 hPa 0,0 mm 0,8 km/h (0 Bft) W 270 12,3 C 0,0 km/h (0 Bft)
14.06.2015 04:45 13,9 C 13,8 C 90 % 1015,1 hPa 0,0 mm 0,8 km/h (0 Bft) W 270 12,3 C 2,6 km/h (1 Bft)
14.06.2015 04:50 13,9 C 13,9 C 90 % 1015,1 hPa 0,0 mm 0,5 km/h (0 Bft) NW 315 12,3 C 0,0 km/h (0 Bft)
14.06.2015 04:55 13,9 C 13,9 C 90 % 1015,1 hPa 0,0 mm 0,3 km/h (0 Bft) W-SW 247 12,3 C 0,0 km/h (0 Bft)
14.06.2015 05:00 13,9 C 13,9 C 90 % 1015,1 hPa 0,0 mm 0,8 km/h (0 Bft) SW 225 12,3 C 0,0 km/h (0 Bft)
14.06.2015 05:05 13,8 C 13,8 C 90 % 1015,1 hPa 0,0 mm 0,8 km/h (0 Bft) SW 225 12,2 C 0,0 km/h (0 Bft)
14.06.2015 05:10 13,5 C 13,5 C 90 % 1015,1 hPa 0,0 mm 0,0 km/h (0 Bft) N-NO 22 11,9 C 0,0 km/h (0 Bft)
14.06.2015 05:15 13,4 C 13,3 C 90 % 1014,7 hPa 0,0 mm 0,0 km/h (0 Bft) NO 45 11,8 C 0,0 km/h (0 Bft)
14.06.2015 05:20 13,1 C 13,1 C 90 % 1014,7 hPa 0,0 mm 0,0 km/h (0 Bft) W 270 11,5 C 0,0 km/h (0 Bft)
14.06.2015 05:25 13,0 C 13,0 C 90 % 1014,7 hPa 0,0 mm 0,3 km/h (0 Bft) W 270 11,4 C 0,0 km/h (0 Bft)
14.06.2015 05:30 13,0 C 12,9 C 90 % 1014,7 hPa 0,0 mm 0,5 km/h (0 Bft) W-SW 247 11,4 C 0,0 km/h (0 Bft)
14.06.2015 05:35 13,0 C 12,9 C 90 % 1014,8 hPa 0,0 mm 1,3 km/h (1 Bft) SW 225 11,4 C 7,5 km/h (2 Bft)
14.06.2015 05:40 12,9 C 12,8 C 91 % 1014,8 hPa 0,0 mm 2,1 km/h (1 Bft) S 180 11,5 C 0,0 km/h (0 Bft)
14.06.2015 05:45 12,6 C 12,6 C 91 % 1014,8 hPa 0,0 mm 1,6 km/h (1 Bft) W-SW 247 11,2 C 0,0 km/h (0 Bft)
14.06.2015 05:50 12,7 C 12,6 C 91 % 1014,8 hPa 0,0 mm 0,0 km/h (0 Bft) W 270 11,3 C 0,0 km/h (0 Bft)
14.06.2015 05:55 12,6 C 12,5 C 91 % 1014,7 hPa 0,0 mm 0,0 km/h (0 Bft) W-NW 292 11,2 C 0,0 km/h (0 Bft)
14.06.2015 06:00 12,7 C 12,6 C 91 % 1014,7 hPa 0,0 mm 0,0 km/h (0 Bft) W-SW 247 11,3 C 0,0 km/h (0 Bft)
14.06.2015 06:05 12,6 C 12,5 C 91 % 1014,7 hPa 0,0 mm 0,0 km/h (0 Bft) S-SW 202 11,2 C 0,0 km/h (0 Bft)
14.06.2015 06:10 12,7 C 12,6 C 91 % 1014,7 hPa 0,0 mm 0,0 km/h (0 Bft) S-SW 202 11,3 C 0,0 km/h (0 Bft)
14.06.2015 06:15 12,6 C 12,6 C 91 % 1014,7 hPa 0,0 mm 0,0 km/h (0 Bft) S-SW 202 11,2 C 0,0 km/h (0 Bft)
14.06.2015 06:20 12,5 C 12,5 C 91 % 1014,7 hPa 0,0 mm 0,0 km/h (0 Bft) W-SW 247 11,1 C 0,0 km/h (0 Bft)
14.06.2015 06:25 12,7 C 12,6 C 91 % 1014,7 hPa 0,0 mm 0,0 km/h (0 Bft) W 270 11,3 C 0,0 km/h (0 Bft)
14.06.2015 06:30 12,8 C 12,8 C 91 % 1014,7 hPa 0,0 mm 0,0 km/h (0 Bft) N-NO 22 11,4 C 0,0 km/h (0 Bft)
14.06.2015 06:35 12,9 C 13,0 C 87 % 1014,3 hPa 0,0 mm 0,0 km/h (0 Bft) NO 45 10,8 C 0,0 km/h (0 Bft)
14.06.2015 06:40 13,0 C 13,4 C 87 % 1014,3 hPa 0,0 mm 0,0 km/h (0 Bft) NO 45 10,9 C 0,0 km/h (0 Bft)
14.06.2015 06:45 13,2 C 13,9 C 87 % 1014,3 hPa 0,0 mm 0,0 km/h (0 Bft) W 270 11,1 C 0,0 km/h (0 Bft)
14.06.2015 06:50 13,8 C 15,0 C 87 % 1014,3 hPa 0,0 mm 0,5 km/h (0 Bft) NW 315 11,7 C 3,9 km/h (1 Bft)
14.06.2015 06:55 14,0 C 15,5 C 87 % 1014,2 hPa 0,0 mm 0,5 km/h (0 Bft) NW 315 11,9 C 2,6 km/h (1 Bft)
14.06.2015 07:00 14,4 C 16,6 C 87 % 1014,2 hPa 0,0 mm 1,0 km/h (0 Bft) W-NW 292 12,3 C 3,1 km/h (1 Bft)
14.06.2015 07:05 14,6 C 17,5 C 87 % 1014,2 hPa 0,0 mm 1,3 km/h (1 Bft) NW 315 12,5 C 0,0 km/h (0 Bft)
14.06.2015 07:10 15,1 C 19,0 C 87 % 1014,2 hPa 0,0 mm 1,3 km/h (1 Bft) O-SO 112 13,0 C 0,0 km/h (0 Bft)
14.06.2015 07:15 15,6 C 20,5 C 87 % 1014,1 hPa 0,0 mm 0,5 km/h (0 Bft) O-NO 67 13,4 C 0,0 km/h (0 Bft)
14.06.2015 07:20 15,7 C 21,2 C 86 % 1014,1 hPa 0,0 mm 0,0 km/h (0 Bft) SO 135 13,4 C 0,0 km/h (0 Bft)
14.06.2015 07:25 15,8 C 21,6 C 86 % 1014,1 hPa 0,0 mm 0,0 km/h (0 Bft) O-SO 112 13,5 C 0,0 km/h (0 Bft)
14.06.2015 07:30 15,9 C 22,2 C 86 % 1014,1 hPa 0,0 mm 0,0 km/h (0 Bft) S 180 13,6 C 0,0 km/h (0 Bft)
14.06.2015 07:35 15,9 C 22,6 C 86 % 1014,2 hPa 0,0 mm 0,0 km/h (0 Bft) S 180 13,6 C 0,0 km/h (0 Bft)
14.06.2015 07:40 16,3 C 23,4 C 85 % 1014,2 hPa 0,0 mm 0,3 km/h (0 Bft) W-SW 247 13,8 C 6,2 km/h (2 Bft)
14.06.2015 07:45 16,7 C 23,6 C 85 % 1014,2 hPa 0,0 mm 0,8 km/h (0 Bft) S-SO 157 14,2 C 0,0 km/h (0 Bft)
14.06.2015 07:50 17,0 C 24,0 C 84 % 1014,2 hPa 0,0 mm 1,0 km/h (0 Bft) NW 315 14,3 C 0,0 km/h (0 Bft)
14.06.2015 07:55 17,4 C 24,0 C 84 % 1014,3 hPa 0,0 mm 0,8 km/h (0 Bft) S-SO 157 14,7 C 0,0 km/h (0 Bft)
14.06.2015 08:00 17,7 C 24,4 C 83 % 1014,3 hPa 0,0 mm 1,6 km/h (1 Bft) S-SW 202 14,8 C 4,7 km/h (1 Bft)
14.06.2015 08:05 17,6 C 24,9 C 82 % 1014,3 hPa 0,0 mm 1,0 km/h (0 Bft) SO 135 14,5 C 0,0 km/h (0 Bft)
14.06.2015 08:10 17,8 C 26,0 C 82 % 1014,3 hPa 0,0 mm 0,5 km/h (0 Bft) S-SO 157 14,7 C 0,0 km/h (0 Bft)
14.06.2015 08:15 18,0 C 26,5 C 81 % 1014,2 hPa 0,0 mm 0,0 km/h (0 Bft) SO 135 14,7 C 0,0 km/h (0 Bft)
14.06.2015 08:20 18,7 C 26,9 C 81 % 1014,2 hPa 0,0 mm 1,3 km/h (1 Bft) NW 315 15,4 C 2,8 km/h (1 Bft)
14.06.2015 08:25 19,2 C 27,0 C 80 % 1014,2 hPa 0,0 mm 1,3 km/h (1 Bft) NW 315 15,7 C 3,4 km/h (1 Bft)
14.06.2015 08:30 19,6 C 26,8 C 79 % 1014,2 hPa 0,0 mm 1,3 km/h (1 Bft) NW 315 15,9 C 3,1 km/h (1 Bft)
14.06.2015 08:35 19,6 C 26,7 C 78 % 1014,3 hPa 0,0 mm 1,3 km/h (1 Bft) NW 315 15,7 C 0,0 km/h (0 Bft)
14.06.2015 08:40 20,0 C 27,3 C 77 % 1014,3 hPa 0,0 mm 0,8 km/h (0 Bft) N 360 15,8 C 0,0 km/h (0 Bft)
14.06.2015 08:45 20,3 C 27,9 C 77 % 1014,3 hPa 0,0 mm 0,8 km/h (0 Bft) NO 45 16,1 C 3,9 km/h (1 Bft)
14.06.2015 08:50 20,5 C 27,8 C 76 % 1014,3 hPa 0,0 mm 0,8 km/h (0 Bft) N-NO 22 16,1 C 0,0 km/h (0 Bft)
14.06.2015 08:55 20,8 C 28,0 C 76 % 1014,4 hPa 0,0 mm 0,8 km/h (0 Bft) O 90 16,4 C 0,0 km/h (0 Bft)
14.06.2015 09:00 20,9 C 28,0 C 74 % 1014,4 hPa 0,0 mm 0,5 km/h (0 Bft) O-NO 67 16,1 C 4,9 km/h (1 Bft)
14.06.2015 09:05 20,5 C 27,1 C 74 % 1014,4 hPa 0,0 mm 0,8 km/h (0 Bft) O-NO 67 15,7 C 0,0 km/h (0 Bft)
14.06.2015 09:10 20,5 C 26,8 C 73 % 1014,4 hPa 0,0 mm 1,8 km/h (1 Bft) NO 45 15,5 C 3,6 km/h (1 Bft)
14.06.2015 09:15 20,6 C 26,6 C 73 % 1014,4 hPa 0,0 mm 1,8 km/h (1 Bft) NO 45 15,6 C 3,6 km/h (1 Bft)
14.06.2015 09:20 20,2 C 26,1 C 73 % 1014,4 hPa 0,0 mm 1,6 km/h (1 Bft) N-NO 22 15,2 C 5,7 km/h (1 Bft)
14.06.2015 09:25 20,2 C 25,6 C 73 % 1014,4 hPa 0,0 mm 2,8 km/h (1 Bft) O-NO 67 15,2 C 8,0 km/h (2 Bft)
14.06.2015 09:30 20,3 C 25,0 C 73 % 1014,4 hPa 0,0 mm 6,7 km/h (2 Bft) O-NO 67 15,3 C 14,8 km/h (3 Bft)
14.06.2015 09:35 20,1 C 24,9 C 74 % 1014,7 hPa 0,0 mm 7,0 km/h (2 Bft) O-NO 67 15,3 C 4,7 km/h (1 Bft)
14.06.2015 09:40 19,5 C 23,8 C 73 % 1014,7 hPa 0,0 mm 6,0 km/h (2 Bft) NO 45 14,5 C 8,8 km/h (2 Bft)
14.06.2015 09:45 19,2 C 22,5 C 73 % 1014,7 hPa 0,0 mm 6,2 km/h (2 Bft) N-NO 22 14,2 C 10,1 km/h (2 Bft)
14.06.2015 09:50 18,9 C 21,7 C 75 % 1014,7 hPa 0,0 mm 6,5 km/h (2 Bft) O 90 14,4 C 10,4 km/h (2 Bft)
14.06.2015 09:55 18,7 C 21,2 C 75 % 1014,8 hPa 0,0 mm 6,5 km/h (2 Bft) O-NO 67 14,2 C 5,4 km/h (1 Bft)
14.06.2015 10:00 18,4 C 20,5 C 76 % 1014,8 hPa 0,0 mm 7,8 km/h (2 Bft) N-NO 22 14,1 C 15,8 km/h (3 Bft)
14.06.2015 10:05 18,2 C 20,2 C 77 % 1014,8 hPa 0,0 mm 7,0 km/h (2 Bft) N-NO 22 14,1 C 11,1 km/h (2 Bft)
14.06.2015 10:10 18,4 C 20,3 C 77 % 1014,8 hPa 0,0 mm 5,2 km/h (1 Bft) NW 315 14,3 C 4,7 km/h (1 Bft)
14.06.2015 10:15 18,5 C 20,9 C 77 % 1014,5 hPa 0,0 mm 4,4 km/h (1 Bft) N-NO 22 14,4 C 6,0 km/h (2 Bft)
14.06.2015 10:20 18,5 C 21,1 C 77 % 1014,5 hPa 0,0 mm 5,4 km/h (1 Bft) O-NO 67 14,4 C 7,0 km/h (2 Bft)
14.06.2015 10:25 18,7 C 22,1 C 77 % 1014,5 hPa 0,0 mm 6,2 km/h (2 Bft) N-NO 22 14,6 C 7,3 km/h (2 Bft)
14.06.2015 10:30 19,2 C 23,5 C 77 % 1014,5 hPa 0,0 mm 5,4 km/h (1 Bft) N-NW 337 15,1 C 7,5 km/h (2 Bft)
14.06.2015 10:35 19,3 C 23,4 C 76 % 1014,2 hPa 0,0 mm 6,2 km/h (2 Bft) NO 45 15,0 C 14,8 km/h (3 Bft)
14.06.2015 10:40 19,3 C 23,2 C 76 % 1014,2 hPa 0,0 mm 7,3 km/h (2 Bft) O-NO 67 15,0 C 0,0 km/h (0 Bft)
14.06.2015 10:45 19,4 C 23,5 C 76 % 1014,2 hPa 0,0 mm 8,0 km/h (2 Bft) N-NW 337 15,1 C 9,6 km/h (2 Bft)
14.06.2015 10:50 19,6 C 23,9 C 75 % 1014,2 hPa 0,0 mm 8,5 km/h (2 Bft) N-NO 22 15,0 C 17,6 km/h (3 Bft)
14.06.2015 10:55 19,8 C 23,9 C 75 % 1014,3 hPa 0,0 mm 9,8 km/h (2 Bft) W-NW 292 15,2 C 15,3 km/h (3 Bft)
14.06.2015 11:00 19,9 C 23,5 C 75 % 1014,3 hPa 0,0 mm 9,1 km/h (2 Bft) N-NO 22 15,3 C 19,7 km/h (3 Bft)
14.06.2015 11:05 19,9 C 23,4 C 75 % 1014,3 hPa 0,0 mm 8,3 km/h (2 Bft) N-NO 22 15,3 C 7,3 km/h (2 Bft)
14.06.2015 11:10 19,6 C 23,2 C 75 % 1014,3 hPa 0,0 mm 6,7 km/h (2 Bft) N-NO 22 15,0 C 6,2 km/h (2 Bft)
14.06.2015 11:15 19,8 C 23,4 C 75 % 1014,3 hPa 0,0 mm 5,2 km/h (1 Bft) W 270 15,2 C 0,0 km/h (0 Bft)
14.06.2015 11:20 20,3 C 24,3 C 75 % 1014,3 hPa 0,0 mm 5,7 km/h (1 Bft) O-NO 67 15,7 C 16,3 km/h (3 Bft)
14.06.2015 11:25 20,4 C 24,6 C 75 % 1014,3 hPa 0,0 mm 6,7 km/h (2 Bft) N-NO 22 15,8 C 17,6 km/h (3 Bft)
14.06.2015 11:30 20,2 C 24,1 C 75 % 1014,3 hPa 0,0 mm 7,8 km/h (2 Bft) NO 45 15,6 C 10,1 km/h (2 Bft)
14.06.2015 11:35 20,2 C 24,4 C 75 % 1014,5 hPa 0,0 mm 7,5 km/h (2 Bft) O-SO 112 15,6 C 5,4 km/h (1 Bft)
14.06.2015 11:40 20,2 C 23,9 C 75 % 1014,5 hPa 0,0 mm 9,1 km/h (2 Bft) N-NO 22 15,6 C 14,0 km/h (3 Bft)
14.06.2015 11:45 20,1 C 23,8 C 75 % 1014,5 hPa 0,0 mm 9,3 km/h (2 Bft) N-NO 22 15,5 C 13,5 km/h (3 Bft)
14.06.2015 11:50 20,0 C 23,3 C 75 % 1014,5 hPa 0,0 mm 9,6 km/h (2 Bft) NO 45 15,4 C 11,1 km/h (2 Bft)
14.06.2015 11:55 20,2 C 23,6 C 74 % 1014,4 hPa 0,0 mm 10,4 km/h (2 Bft) NO 45 15,4 C 18,9 km/h (3 Bft)
14.06.2015 12:00 20,6 C 24,1 C 74 % 1014,4 hPa 0,0 mm 10,1 km/h (2 Bft) N-NO 22 15,8 C 8,0 km/h (2 Bft)
14.06.2015 12:05 20,8 C 24,4 C 74 % 1014,4 hPa 0,0 mm 9,6 km/h (2 Bft) O-NO 67 16,0 C 7,8 km/h (2 Bft)
14.06.2015 12:10 21,1 C 25,2 C 73 % 1014,4 hPa 0,0 mm 9,1 km/h (2 Bft) O-NO 67 16,1 C 10,1 km/h (2 Bft)
14.06.2015 12:15 20,9 C 25,1 C 73 % 1013,8 hPa 0,0 mm 8,5 km/h (2 Bft) O-NO 67 15,9 C 9,1 km/h (2 Bft)
14.06.2015 12:20 20,9 C 24,7 C 73 % 1013,8 hPa 0,0 mm 8,0 km/h (2 Bft) NO 45 15,9 C 15,5 km/h (3 Bft)
14.06.2015 12:25 21,0 C 24,7 C 72 % 1013,8 hPa 0,0 mm 8,0 km/h (2 Bft) NO 45 15,8 C 7,5 km/h (2 Bft)
14.06.2015 12:30 21,2 C 25,7 C 72 % 1013,8 hPa 0,0 mm 8,0 km/h (2 Bft) NO 45 15,9 C 10,4 km/h (2 Bft)
14.06.2015 12:35 21,5 C 26,2 C 72 % 1014,0 hPa 0,0 mm 8,8 km/h (2 Bft) O-NO 67 16,2 C 11,9 km/h (2 Bft)
14.06.2015 12:40 21,5 C 25,6 C 71 % 1014,0 hPa 0,0 mm 10,1 km/h (2 Bft) O-NO 67 16,0 C 20,7 km/h (4 Bft)
14.06.2015 12:45 21,2 C 25,1 C 72 % 1014,0 hPa 0,0 mm 10,4 km/h (2 Bft) N-NO 22 15,9 C 17,9 km/h (3 Bft)
14.06.2015 12:50 21,1 C 23,8 C 72 % 1014,0 hPa 0,0 mm 11,4 km/h (2 Bft) O-NO 67 15,8 C 24,3 km/h (4 Bft)
14.06.2015 12:55 21,0 C 23,6 C 73 % 1014,1 hPa 0,0 mm 11,1 km/h (2 Bft) NO 45 16,0 C 7,3 km/h (2 Bft)
14.06.2015 13:00 20,9 C 23,1 C 73 % 1014,1 hPa 0,0 mm 9,6 km/h (2 Bft) O-NO 67 15,9 C 8,3 km/h (2 Bft)
14.06.2015 13:05 20,8 C 22,8 C 73 % 1014,1 hPa 0,0 mm 8,8 km/h (2 Bft) O-NO 67 15,8 C 12,7 km/h (3 Bft)
14.06.2015 13:10 20,8 C 22,6 C 73 % 1014,1 hPa 0,0 mm 9,3 km/h (2 Bft) N-NO 22 15,8 C 17,9 km/h (3 Bft)
14.06.2015 13:15 20,6 C 22,5 C 73 % 1013,9 hPa 0,0 mm 10,1 km/h (2 Bft) NO 45 15,6 C 12,7 km/h (3 Bft)
14.06.2015 13:20 20,6 C 22,2 C 73 % 1013,9 hPa 0,0 mm 10,6 km/h (2 Bft) O-NO 67 15,6 C 8,5 km/h (2 Bft)
14.06.2015 13:25 20,6 C 22,1 C 74 % 1013,9 hPa 0,0 mm 8,3 km/h (2 Bft) O-NO 67 15,8 C 2,6 km/h (1 Bft)
14.06.2015 13:30 20,6 C 22,0 C 74 % 1013,9 hPa 0,0 mm 5,7 km/h (1 Bft) NO 45 15,8 C 4,9 km/h (1 Bft)
14.06.2015 13:35 20,4 C 21,7 C 74 % 1013,6 hPa 0,0 mm 6,2 km/h (2 Bft) NO 45 15,6 C 7,3 km/h (2 Bft)
14.06.2015 13:40 20,3 C 21,4 C 74 % 1013,6 hPa 0,0 mm 6,2 km/h (2 Bft) N-NO 22 15,5 C 3,9 km/h (1 Bft)
14.06.2015 13:45 20,2 C 21,1 C 74 % 1013,6 hPa 0,0 mm 4,9 km/h (1 Bft) NO 45 15,4 C 7,3 km/h (2 Bft)
14.06.2015 13:50 20,1 C 20,8 C 74 % 1013,6 hPa 0,0 mm 4,9 km/h (1 Bft) S 180 15,3 C 9,3 km/h (2 Bft)
14.06.2015 13:55 20,1 C 20,7 C 75 % 1013,4 hPa 0,0 mm 5,2 km/h (1 Bft) NO 45 15,5 C 9,3 km/h (2 Bft)
14.06.2015 14:00 20,1 C 20,5 C 75 % 1013,4 hPa 0,0 mm 6,5 km/h (2 Bft) O-SO 112 15,5 C 4,9 km/h (1 Bft)
14.06.2015 14:05 20,1 C 20,5 C 75 % 1013,4 hPa 0,0 mm 7,0 km/h (2 Bft) NO 45 15,5 C 7,8 km/h (2 Bft)
14.06.2015 14:10 20,1 C 20,1 C 76 % 1013,4 hPa 0,7 mm 7,0 km/h (2 Bft) O-NO 67 15,7 C 7,0 km/h (2 Bft)
14.06.2015 14:15 20,2 C 20,2 C 76 % 1012,9 hPa 0,0 mm 7,0 km/h (2 Bft) NO 45 15,8 C 13,5 km/h (3 Bft)
14.06.2015 14:20 20,5 C 20,8 C 77 % 1012,9 hPa 0,0 mm 6,2 km/h (2 Bft) O-SO 112 16,3 C 5,4 km/h (1 Bft)
14.06.2015 14:25 20,6 C 21,3 C 77 % 1012,9 hPa 0,0 mm 6,2 km/h (2 Bft) NO 45 16,4 C 10,9 km/h (2 Bft)
14.06.2015 14:30 20,9 C 22,5 C 77 % 1012,9 hPa 0,0 mm 7,0 km/h (2 Bft) N-NO 22 16,7 C 10,1 km/h (2 Bft)
14.06.2015 14:35 21,2 C 23,7 C 76 % 1012,8 hPa 0,0 mm 8,5 km/h (2 Bft) N-NO 22 16,8 C 14,2 km/h (3 Bft)
14.06.2015 14:40 21,5 C 25,2 C 74 % 1012,8 hPa 0,0 mm 8,3 km/h (2 Bft) N-NO 22 16,7 C 14,5 km/h (3 Bft)
14.06.2015 14:45 21,5 C 25,5 C 74 % 1012,8 hPa 0,0 mm 7,5 km/h (2 Bft) O-NO 67 16,7 C 10,9 km/h (2 Bft)
14.06.2015 14:50 21,2 C 24,5 C 74 % 1012,8 hPa 0,0 mm 9,6 km/h (2 Bft) N 360 16,4 C 18,4 km/h (3 Bft)
14.06.2015 14:55 21,5 C 24,7 C 74 % 1012,6 hPa 0,0 mm 10,6 km/h (2 Bft) N-NO 22 16,7 C 14,8 km/h (3 Bft)
14.06.2015 15:00 22,0 C 25,9 C 74 % 1012,6 hPa 0,0 mm 8,8 km/h (2 Bft) O-NO 67 17,1 C 16,8 km/h (3 Bft)
14.06.2015 15:05 21,9 C 26,2 C 71 % 1012,6 hPa 0,0 mm 8,5 km/h (2 Bft) N-NW 337 16,4 C 6,0 km/h (2 Bft)
14.06.2015 15:10 21,4 C 26,2 C 69 % 1012,6 hPa 0,0 mm 8,3 km/h (2 Bft) O-NO 67 15,5 C 9,6 km/h (2 Bft)
14.06.2015 15:15 21,2 C 25,8 C 69 % 1012,6 hPa 0,0 mm 8,8 km/h (2 Bft) N-NO 22 15,3 C 17,9 km/h (3 Bft)
14.06.2015 15:20 20,9 C 24,6 C 68 % 1012,6 hPa 0,0 mm 11,1 km/h (2 Bft) O-NO 67 14,8 C 12,2 km/h (2 Bft)
14.06.2015 15:25 21,0 C 24,5 C 69 % 1012,6 hPa 0,0 mm 10,9 km/h (2 Bft) N-NO 22 15,1 C 9,3 km/h (2 Bft)
14.06.2015 15:30 20,5 C 23,4 C 71 % 1012,6 hPa 0,0 mm 9,1 km/h (2 Bft) N-NO 22 15,1 C 11,4 km/h (2 Bft)
14.06.2015 15:35 20,3 C 22,6 C 72 % 1012,4 hPa 0,0 mm 9,3 km/h (2 Bft) O-NO 67 15,1 C 12,7 km/h (3 Bft)
14.06.2015 15:40 20,1 C 21,8 C 73 % 1012,4 hPa 0,0 mm 8,5 km/h (2 Bft) SO 135 15,1 C 3,4 km/h (1 Bft)
14.06.2015 15:45 20,0 C 21,5 C 73 % 1012,4 hPa 0,0 mm 6,5 km/h (2 Bft) O-NO 67 15,0 C 0,0 km/h (0 Bft)
14.06.2015 15:50 20,1 C 21,3 C 73 % 1012,4 hPa 0,0 mm 3,9 km/h (1 Bft) NO 45 15,1 C 10,4 km/h (2 Bft)
14.06.2015 15:55 20,1 C 21,1 C 73 % 1012,3 hPa 0,0 mm 3,9 km/h (1 Bft) NO 45 15,1 C 4,4 km/h (1 Bft)
14.06.2015 16:00 20,1 C 20,9 C 74 % 1012,3 hPa 0,0 mm 6,0 km/h (2 Bft) O-SO 112 15,3 C 9,8 km/h (2 Bft)
14.06.2015 16:05 20,1 C 20,7 C 74 % 1012,3 hPa 0,0 mm 5,4 km/h (1 Bft) N-NO 22 15,3 C 0,0 km/h (0 Bft)
14.06.2015 16:10 20,2 C 20,9 C 75 % 1012,3 hPa 0,0 mm 4,4 km/h (1 Bft) N-NO 22 15,6 C 5,4 km/h (1 Bft)
14.06.2015 16:15 20,3 C 21,6 C 75 % 1012,0 hPa 0,0 mm 4,1 km/h (1 Bft) N-NO 22 15,7 C 8,8 km/h (2 Bft)
14.06.2015 16:20 20,5 C 22,5 C 75 % 1012,0 hPa 0,0 mm 6,2 km/h (2 Bft) N-NO 22 15,9 C 10,9 km/h (2 Bft)
14.06.2015 16:25 20,4 C 22,2 C 76 % 1012,0 hPa 0,0 mm 7,0 km/h (2 Bft) N 360 16,0 C 6,7 km/h (2 Bft)
14.06.2015 16:30 20,3 C 21,8 C 76 % 1012,0 hPa 0,0 mm 6,5 km/h (2 Bft) NO 45 15,9 C 10,4 km/h (2 Bft)
14.06.2015 16:35 20,2 C 21,6 C 76 % 1011,8 hPa 0,0 mm 6,5 km/h (2 Bft) NO 45 15,8 C 11,4 km/h (2 Bft)
14.06.2015 16:40 20,0 C 20,9 C 76 % 1011,8 hPa 0,0 mm 8,0 km/h (2 Bft) NO 45 15,6 C 7,0 km/h (2 Bft)
14.06.2015 16:45 20,1 C 20,7 C 76 % 1011,8 hPa 0,0 mm 7,8 km/h (2 Bft) NO 45 15,7 C 2,8 km/h (1 Bft)
14.06.2015 16:50 20,0 C 20,5 C 77 % 1011,8 hPa 0,0 mm 5,7 km/h (1 Bft) O-NO 67 15,8 C 7,0 km/h (2 Bft)
14.06.2015 16:55 20,0 C 20,5 C 77 % 1011,7 hPa 0,0 mm 3,6 km/h (1 Bft) N-NO 22 15,8 C 2,8 km/h (1 Bft)
14.06.2015 17:00 20,0 C 20,7 C 77 % 1011,7 hPa 0,0 mm 1,0 km/h (0 Bft) N-NO 22 15,8 C 0,0 km/h (0 Bft)
14.06.2015 17:05 20,0 C 20,7 C 77 % 1011,7 hPa 0,0 mm 1,6 km/h (1 Bft) NO 45 15,8 C 4,4 km/h (1 Bft)
14.06.2015 17:10 20,0 C 20,9 C 77 % 1011,7 hPa 0,0 mm 1,6 km/h (1 Bft) NW 315 15,8 C 3,9 km/h (1 Bft)
14.06.2015 17:15 20,1 C 21,0 C 77 % 1011,2 hPa 0,0 mm 1,6 km/h (1 Bft) N 360 15,9 C 4,9 km/h (1 Bft)
14.06.2015 17:20 20,2 C 21,1 C 78 % 1011,2 hPa 0,0 mm 2,3 km/h (1 Bft) N-NW 337 16,2 C 0,0 km/h (0 Bft)
14.06.2015 17:25 20,3 C 21,2 C 77 % 1011,2 hPa 0,0 mm 1,3 km/h (1 Bft) N-NW 337 16,1 C 0,0 km/h (0 Bft)
14.06.2015 17:30 20,5 C 21,4 C 77 % 1011,2 hPa 0,0 mm 1,3 km/h (1 Bft) NW 315 16,3 C 6,0 km/h (2 Bft)
14.06.2015 17:35 20,5 C 21,4 C 77 % 1011,0 hPa 0,0 mm 2,8 km/h (1 Bft) N 360 16,3 C 9,6 km/h (2 Bft)
14.06.2015 17:40 20,4 C 21,3 C 77 % 1011,0 hPa 0,0 mm 4,7 km/h (1 Bft) W-NW 292 16,2 C 3,9 km/h (1 Bft)
14.06.2015 17:45 20,4 C 21,2 C 77 % 1011,0 hPa 0,0 mm 4,4 km/h (1 Bft) W 270 16,2 C 2,8 km/h (1 Bft)
14.06.2015 17:50 20,4 C 21,4 C 77 % 1011,0 hPa 0,0 mm 1,8 km/h (1 Bft) NW 315 16,2 C 3,6 km/h (1 Bft)
14.06.2015 17:55 20,4 C 21,4 C 77 % 1011,1 hPa 0,0 mm 2,6 km/h (1 Bft) W-NW 292 16,2 C 5,7 km/h (1 Bft)
14.06.2015 18:00 20,4 C 21,2 C 77 % 1011,1 hPa 0,0 mm 3,1 km/h (1 Bft) N-NW 337 16,2 C 4,4 km/h (1 Bft)
14.06.2015 18:05 20,4 C 21,2 C 77 % 1011,1 hPa 0,0 mm 2,6 km/h (1 Bft) W 270 16,2 C 3,4 km/h (1 Bft)
14.06.2015 18:10 20,3 C 21,1 C 77 % 1011,1 hPa 0,0 mm 2,8 km/h (1 Bft) W-SW 247 16,1 C 0,0 km/h (0 Bft)
14.06.2015 18:15 20,3 C 21,1 C 77 % 1011,1 hPa 0,0 mm 2,1 km/h (1 Bft) W-NW 292 16,1 C 0,0 km/h (0 Bft)
14.06.2015 18:20 20,2 C 21,0 C 78 % 1011,1 hPa 0,0 mm 2,6 km/h (1 Bft) NW 315 16,2 C 3,4 km/h (1 Bft)
14.06.2015 18:25 20,2 C 20,9 C 78 % 1011,1 hPa 0,0 mm 3,4 km/h (1 Bft) W 270 16,2 C 7,8 km/h (2 Bft)
14.06.2015 18:30 20,1 C 20,7 C 78 % 1011,1 hPa 0,0 mm 3,6 km/h (1 Bft) W 270 16,1 C 5,7 km/h (1 Bft)
14.06.2015 18:35 20,1 C 20,7 C 78 % 1011,0 hPa 0,0 mm 3,6 km/h (1 Bft) S-SW 202 16,1 C 5,2 km/h (1 Bft)
14.06.2015 18:40 20,1 C 20,6 C 78 % 1011,0 hPa 0,0 mm 3,6 km/h (1 Bft) W 270 16,1 C 5,4 km/h (1 Bft)
14.06.2015 18:45 20,1 C 20,5 C 78 % 1011,0 hPa 0,0 mm 3,1 km/h (1 Bft) W-NW 292 16,1 C 0,0 km/h (0 Bft)
14.06.2015 18:50 20,1 C 20,5 C 78 % 1011,0 hPa 0,0 mm 1,8 km/h (1 Bft) NW 315 16,1 C 6,2 km/h (2 Bft)
14.06.2015 18:55 20,1 C 20,5 C 78 % 1010,7 hPa 0,0 mm 2,3 km/h (1 Bft) NW 315 16,1 C 0,0 km/h (0 Bft)
14.06.2015 19:00 20,2 C 20,6 C 78 % 1010,7 hPa 0,0 mm 1,8 km/h (1 Bft) NW 315 16,2 C 3,9 km/h (1 Bft)
14.06.2015 19:05 20,2 C 20,7 C 78 % 1010,7 hPa 0,0 mm 0,5 km/h (0 Bft) N-NO 22 16,2 C 5,2 km/h (1 Bft)
14.06.2015 19:10 20,2 C 20,7 C 78 % 1010,7 hPa 0,0 mm 2,3 km/h (1 Bft) NW 315 16,2 C 3,9 km/h (1 Bft)
14.06.2015 19:15 20,1 C 20,7 C 78 % 1010,9 hPa 0,0 mm 3,1 km/h (1 Bft) SW 225 16,1 C 3,1 km/h (1 Bft)
14.06.2015 19:20 20,0 C 20,5 C 78 % 1010,9 hPa 0,0 mm 2,3 km/h (1 Bft) SW 225 16,0 C 0,0 km/h (0 Bft)
14.06.2015 19:25 19,8 C 20,4 C 79 % 1010,9 hPa 0,0 mm 1,8 km/h (1 Bft) S-SO 157 16,0 C 0,0 km/h (0 Bft)
14.06.2015 19:30 19,6 C 20,1 C 79 % 1010,9 hPa 0,0 mm 1,3 km/h (1 Bft) NW 315 15,9 C 0,0 km/h (0 Bft)
14.06.2015 19:35 19,5 C 19,9 C 79 % 1011,0 hPa 0,0 mm 1,8 km/h (1 Bft) N 360 15,8 C 0,0 km/h (0 Bft)
14.06.2015 19:40 19,4 C 19,7 C 79 % 1011,0 hPa 0,0 mm 1,8 km/h (1 Bft) NW 315 15,7 C 5,4 km/h (1 Bft)
14.06.2015 19:45 19,3 C 19,4 C 79 % 1011,0 hPa 0,0 mm 1,0 km/h (0 Bft) N-NO 22 15,6 C 0,0 km/h (0 Bft)
14.06.2015 19:50 19,1 C 19,2 C 79 % 1011,0 hPa 0,0 mm 1,0 km/h (0 Bft) W-NW 292 15,4 C 0,0 km/h (0 Bft)
14.06.2015 19:55 19,0 C 19,1 C 79 % 1011,2 hPa 0,0 mm 1,6 km/h (1 Bft) NW 315 15,3 C 8,3 km/h (2 Bft)
14.06.2015 20:00 18,8 C 18,8 C 79 % 1011,2 hPa 0,0 mm 1,8 km/h (1 Bft) W 270 15,1 C 3,9 km/h (1 Bft)
14.06.2015 20:05 18,7 C 18,7 C 79 % 1011,2 hPa 0,0 mm 2,1 km/h (1 Bft) W-NW 292 15,0 C 0,0 km/h (0 Bft)
14.06.2015 20:10 18,5 C 18,4 C 80 % 1011,2 hPa 0,0 mm 1,6 km/h (1 Bft) S 180 15,0 C 5,7 km/h (1 Bft)
14.06.2015 20:15 18,4 C 18,3 C 80 % 1011,0 hPa 0,0 mm 1,6 km/h (1 Bft) W-SW 247 14,9 C 6,0 km/h (2 Bft)
14.06.2015 20:20 18,1 C 18,0 C 80 % 1011,0 hPa 0,0 mm 1,3 km/h (1 Bft) O 90 14,6 C 0,0 km/h (0 Bft)
14.06.2015 20:25 18,0 C 17,9 C 80 % 1011,0 hPa 0,0 mm 1,6 km/h (1 Bft) S 180 14,5 C 0,0 km/h (0 Bft)
14.06.2015 20:30 17,8 C 17,7 C 81 % 1011,0 hPa 0,0 mm 1,0 km/h (0 Bft) NW 315 14,5 C 0,0 km/h (0 Bft)
14.06.2015 20:35 17,8 C 17,7 C 81 % 1011,1 hPa 0,0 mm 0,8 km/h (0 Bft) W-SW 247 14,5 C 3,6 km/h (1 Bft)
14.06.2015 20:40 17,7 C 17,6 C 82 % 1011,1 hPa 0,0 mm 1,0 km/h (0 Bft) SW 225 14,6 C 3,4 km/h (1 Bft)
14.06.2015 20:45 17,7 C 17,5 C 82 % 1011,1 hPa 0,0 mm 1,6 km/h (1 Bft) SO 135 14,6 C 3,4 km/h (1 Bft)
14.06.2015 20:50 17,6 C 17,4 C 82 % 1011,1 hPa 0,0 mm 1,3 km/h (1 Bft) S 180 14,5 C 0,0 km/h (0 Bft)
14.06.2015 20:55 17,5 C 17,4 C 82 % 1011,4 hPa 0,0 mm 1,3 km/h (1 Bft) SW 225 14,4 C 4,7 km/h (1 Bft)
14.06.2015 21:00 17,4 C 17,3 C 83 % 1011,4 hPa 0,0 mm 1,6 km/h (1 Bft) SW 225 14,5 C 3,6 km/h (1 Bft)
14.06.2015 21:05 17,5 C 17,3 C 83 % 1011,4 hPa 0,0 mm 2,3 km/h (1 Bft) W-SW 247 14,6 C 4,1 km/h (1 Bft)
14.06.2015 21:10 17,5 C 17,4 C 83 % 1011,4 hPa 0,0 mm 3,4 km/h (1 Bft) NO 45 14,6 C 4,1 km/h (1 Bft)
14.06.2015 21:15 17,6 C 17,4 C 83 % 1011,5 hPa 0,0 mm 4,7 km/h (1 Bft) W 270 14,7 C 8,5 km/h (2 Bft)
14.06.2015 21:20 17,6 C 17,5 C 83 % 1011,5 hPa 0,0 mm 5,2 km/h (1 Bft) S-SW 202 14,7 C 9,8 km/h (2 Bft)
14.06.2015 21:25 17,7 C 17,5 C 83 % 1011,5 hPa 0,0 mm 5,2 km/h (1 Bft) W 270 14,8 C 6,5 km/h (2 Bft)
14.06.2015 21:30 17,8 C 17,7 C 84 % 1011,5 hPa 0,0 mm 5,4 km/h (1 Bft) SW 225 15,1 C 4,9 km/h (1 Bft)
14.06.2015 21:35 17,8 C 17,7 C 84 % 1011,8 hPa 0,0 mm 5,7 km/h (1 Bft) W-SW 247 15,1 C 6,2 km/h (2 Bft)
14.06.2015 21:40 17,9 C 17,8 C 83 % 1011,8 hPa 0,0 mm 4,7 km/h (1 Bft) S-SO 157 15,0 C 0,0 km/h (0 Bft)
14.06.2015 21:45 17,9 C 17,8 C 83 % 1011,8 hPa 0,0 mm 3,6 km/h (1 Bft) W-SW 247 15,0 C 3,4 km/h (1 Bft)
14.06.2015 21:50 17,9 C 17,8 C 83 % 1011,8 hPa 0,0 mm 1,8 km/h (1 Bft) W 270 15,0 C 6,2 km/h (2 Bft)
14.06.2015 21:55 17,9 C 17,9 C 83 % 1011,9 hPa 0,0 mm 2,6 km/h (1 Bft) W-SW 247 15,0 C 4,7 km/h (1 Bft)
14.06.2015 22:00 17,8 C 17,8 C 82 % 1011,9 hPa 0,0 mm 5,4 km/h (1 Bft) NW 315 14,7 C 9,3 km/h (2 Bft)
14.06.2015 22:05 17,5 C 17,5 C 82 % 1011,9 hPa 0,0 mm 6,2 km/h (2 Bft) S 180 14,4 C 11,1 km/h (2 Bft)
14.06.2015 22:10 17,1 C 17,2 C 80 % 1011,9 hPa 0,0 mm 5,7 km/h (1 Bft) S 180 13,6 C 8,3 km/h (2 Bft)
14.06.2015 22:15 16,3 C 16,3 C 80 % 1012,0 hPa 0,0 mm 6,5 km/h (2 Bft) SW 225 12,8 C 11,7 km/h (2 Bft)
14.06.2015 22:21 15,6 C 15,5 C 82 % 1012,0 hPa 2,1 mm 7,8 km/h (2 Bft) SW 225 12,5 C 10,1 km/h (2 Bft)
14.06.2015 22:25 15,7 C 15,5 C 84 % 1012,0 hPa 2,1 mm 7,8 km/h (2 Bft) N-NW 337 13,0 C 6,2 km/h (2 Bft)
14.06.2015 22:30 15,6 C 15,4 C 85 % 1012,0 hPa 1,4 mm 7,0 km/h (2 Bft) N-NW 337 13,1 C 9,3 km/h (2 Bft)
14.06.2015 22:35 15,5 C 15,3 C 85 % 1012,4 hPa 0,7 mm 7,0 km/h (2 Bft) NW 315 13,0 C 9,8 km/h (2 Bft)
14.06.2015 22:40 15,5 C 15,3 C 86 % 1012,4 hPa 0,0 mm 5,2 km/h (1 Bft) NW 315 13,2 C 3,4 km/h (1 Bft)
14.06.2015 22:45 15,4 C 15,3 C 86 % 1012,4 hPa 0,7 mm 4,9 km/h (1 Bft) W-SW 247 13,1 C 7,5 km/h (2 Bft)
14.06.2015 22:50 15,2 C 15,1 C 86 % 1012,4 hPa 0,0 mm 5,2 km/h (1 Bft) W 270 12,9 C 15,5 km/h (3 Bft)
14.06.2015 22:55 15,1 C 14,9 C 86 % 1012,2 hPa 0,0 mm 3,9 km/h (1 Bft) SW 225 12,8 C 2,6 km/h (1 Bft)
14.06.2015 23:00 15,0 C 14,8 C 86 % 1012,2 hPa 0,0 mm 4,1 km/h (1 Bft) O-NO 67 12,7 C 9,3 km/h (2 Bft)
14.06.2015 23:05 14,9 C 14,7 C 87 % 1012,2 hPa 0,0 mm 6,5 km/h (2 Bft) W-SW 247 12,8 C 13,2 km/h (3 Bft)
14.06.2015 23:10 14,8 C 14,6 C 87 % 1012,2 hPa 0,0 mm 9,1 km/h (2 Bft) W-SW 247 12,7 C 13,7 km/h (3 Bft)
14.06.2015 23:15 14,7 C 14,5 C 87 % 1012,4 hPa 0,7 mm 10,4 km/h (2 Bft) W-SW 247 12,6 C 9,3 km/h (2 Bft)
14.06.2015 23:20 14,6 C 14,4 C 87 % 1012,4 hPa 0,0 mm 9,6 km/h (2 Bft) N-NW 337 12,5 C 30,0 km/h (5 Bft)
14.06.2015 23:25 14,6 C 14,4 C 87 % 1012,4 hPa 0,0 mm 7,8 km/h (2 Bft) W-SW 247 12,5 C 4,1 km/h (1 Bft)
14.06.2015 23:30 14,5 C 14,3 C 87 % 1012,4 hPa 0,0 mm 5,4 km/h (1 Bft) W-NW 292 12,4 C 8,5 km/h (2 Bft)
14.06.2015 23:35 14,4 C 14,2 C 87 % 1013,4 hPa 0,0 mm 4,7 km/h (1 Bft) S 180 12,3 C 2,6 km/h (1 Bft)
14.06.2015 23:40 14,4 C 14,2 C 87 % 1013,4 hPa 0,0 mm 6,2 km/h (2 Bft) SW 225 12,3 C 7,8 km/h (2 Bft)
14.06.2015 23:45 14,3 C 14,1 C 88 % 1013,4 hPa 0,7 mm 7,0 km/h (2 Bft) O 90 12,3 C 5,4 km/h (1 Bft)
14.06.2015 23:50 14,3 C 14,1 C 88 % 1013,4 hPa 0,0 mm 6,2 km/h (2 Bft) SO 135 12,3 C 6,2 km/h (2 Bft)
14.06.2015 23:55 14,3 C 14,1 C 88 % 1013,1 hPa 0,0 mm 5,4 km/h (1 Bft) W-SW 247 12,3 C 2,8 km/h (1 Bft)
_ Min-Zeit 06:20 06:20 15:20 19:10 - 08:15 - - 06:35 21:40
Minimum _ 12,5 C 12,5 C 68 % 1010,7 hPa - 0,0 km/h (0 Bft) - - 10,8 C 0,0 km/h (0 Bft)
_ Max-Zeit 15:00 09:00 06:30 00:10 22:21 12:50 - - 15:00 23:20
Maximum _ 22,0 C 28,0 C 91 % 1016,6 hPa 2,1 mm 11,4 km/h
O-NO (2 Bft)
- - 17,1 C 30,0 km/h
N-NW (5 Bft)
Durchschnitt _ 17,5 C 19,1 C 81 % 1013,6 hPa #8,9 mm 3,7 km/h (1 Bft) N-NO - 14,2 C 5,1 km/h (1 Bft)